Time;durP1;ratioP1;P1;durP2;ratioP2;P2;SDS_P1;SDS_P2;PMS_P1;PMS_P2;Temp;Humidity;BMP_temperature;BMP_pressure;BME280_temperature;BME280_humidity;BME280_pressure;Samples;Min_cycle;Max_cycle;Signal;HPM_P1;HPM_P2
2021/07/23 00:00:43;;;;;;;9.43;8.10;;;;;;;;;;5095736;28;20023;-59
2021/07/23 00:03:09;;;;;;;9.82;7.90;;;;;;;;;;5095518;28;20232;-58
2021/07/23 00:05:35;;;;;;;11.10;7.68;;;;;;;;;;5095783;28;20446;-59
2021/07/23 00:08:01;;;;;;;10.73;8.38;;;;;;;;;;5095681;28;20139;-59
2021/07/23 00:10:27;;;;;;;10.02;8.00;;;;;;;;;;5095269;28;20060;-59
2021/07/23 00:12:53;;;;;;;9.95;7.45;;;;;;;;;;5095686;28;20027;-59
2021/07/23 00:15:19;;;;;;;9.75;7.18;;;;;;;;;;5093879;28;20039;-59
2021/07/23 00:17:45;;;;;;;9.38;6.88;;;;;;;;;;5095357;28;20343;-59
2021/07/23 00:20:11;;;;;;;13.45;7.35;;;;;;;;;;5095380;28;20020;-59
2021/07/23 00:22:38;;;;;;;11.73;8.63;;;;;;;;;;5095324;28;20118;-59
2021/07/23 00:25:04;;;;;;;11.52;7.63;;;;;;;;;;5095683;28;20038;-59
2021/07/23 00:27:30;;;;;;;8.95;7.10;;;;;;;;;;5094914;28;20582;-59
2021/07/23 00:29:56;;;;;;;14.13;8.90;;;;;;;;;;5094977;28;20037;-58
2021/07/23 00:32:21;;;;;;;10.00;7.53;;;;;;;;;;5094873;28;20107;-59
2021/07/23 00:34:47;;;;;;;9.05;7.18;;;;;;;;;;5095095;28;20028;-58
2021/07/23 00:37:13;;;;;;;12.82;8.68;;;;;;;;;;5094433;28;20028;-59
2021/07/23 00:39:42;;;;;;;11.73;7.53;;;;;;;;;;5094514;28;20477;-58
2021/07/23 00:42:09;;;;;;;12.73;7.30;;;;;;;;;;5094500;28;20103;-59
2021/07/23 00:44:35;;;;;;;9.88;7.60;;;;;;;;;;5095135;28;20067;-58
2021/07/23 00:47:01;;;;;;;10.95;7.35;;;;;;;;;;5094406;28;20023;-59
2021/07/23 00:49:30;;;;;;;10.25;7.22;;;;;;;;;;5094752;28;20465;-59
2021/07/23 00:51:56;;;;;;;10.07;7.13;;;;;;;;;;5094537;28;20024;-59
2021/07/23 00:54:23;;;;;;;10.60;7.72;;;;;;;;;;5094618;28;20024;-59
2021/07/23 00:56:49;;;;;;;11.18;7.90;;;;;;;;;;5094429;28;20032;-59
2021/07/23 00:59:16;;;;;;;10.55;7.65;;;;;;;;;;5094333;28;20031;-58
2021/07/23 01:01:44;;;;;;;9.73;6.97;;;;;;;;;;5094284;28;20103;-59
2021/07/23 01:04:10;;;;;;;7.60;6.80;;;;;;;;;;5094665;28;20028;-58
2021/07/23 01:06:36;;;;;;;10.07;6.82;;;;;;;;;;5094149;28;20085;-59
2021/07/23 01:09:02;;;;;;;12.57;7.47;;;;;;;;;;5094115;28;20423;-59
2021/07/23 01:11:31;;;;;;;8.63;7.65;;;;;;;;;;5093869;28;20369;-58
2021/07/23 01:13:57;;;;;;;8.88;7.05;;;;;;;;;;5093868;28;20028;-59
2021/07/23 01:16:23;;;;;;;10.95;7.38;;;;;;;;;;5094618;28;20055;-59
2021/07/23 01:18:49;;;;;;;11.07;6.90;;;;;;;;;;5092893;28;20020;-59
2021/07/23 01:21:16;;;;;;;11.50;7.13;;;;;;;;;;5094349;28;20028;-59
2021/07/23 01:23:42;;;;;;;8.57;7.38;;;;;;;;;;5094365;28;20028;-58
2021/07/23 01:26:08;;;;;;;8.88;6.60;;;;;;;;;;5094082;28;20400;-58
2021/07/23 01:28:35;;;;;;;8.55;6.65;;;;;;;;;;5094337;28;20016;-59
2021/07/23 01:31:02;;;;;;;9.65;7.40;;;;;;;;;;5093859;28;20023;-59
2021/07/23 01:33:28;;;;;;;9.65;7.78;;;;;;;;;;5094519;28;20031;-58
2021/07/23 01:35:54;;;;;;;11.73;7.70;;;;;;;;;;5093692;28;20110;-58
2021/07/23 01:38:23;;;;;;;8.63;6.97;;;;;;;;;;5093742;28;20116;-59
2021/07/23 01:40:49;;;;;;;9.25;7.78;;;;;;;;;;5093704;28;20069;-59
2021/07/23 01:43:15;;;;;;;9.70;7.80;;;;;;;;;;5094481;28;20396;-58
2021/07/23 01:45:42;;;;;;;9.15;8.15;;;;;;;;;;5094034;28;20115;-59
2021/07/23 01:48:08;;;;;;;8.70;7.35;;;;;;;;;;5093746;28;20024;-59
2021/07/23 01:50:34;;;;;;;8.63;7.63;;;;;;;;;;5093802;28;20107;-59
2021/07/23 01:53:00;;;;;;;8.40;7.30;;;;;;;;;;5093558;28;20066;-59
2021/07/23 01:55:26;;;;;;;9.07;7.50;;;;;;;;;;5093601;28;20028;-59
2021/07/23 01:57:52;;;;;;;9.73;7.97;;;;;;;;;;5093748;28;20062;-59
2021/07/23 02:00:18;;;;;;;9.23;7.65;;;;;;;;;;5093496;28;20452;-59
2021/07/23 02:02:44;;;;;;;8.50;7.43;;;;;;;;;;5093641;28;20028;-59
2021/07/23 02:05:10;;;;;;;9.90;7.25;;;;;;;;;;5093396;28;20111;-58
2021/07/23 02:07:36;;;;;;;10.75;7.78;;;;;;;;;;5093395;28;20162;-59
2021/07/23 02:10:03;;;;;;;9.90;7.97;;;;;;;;;;5093424;28;20058;-58
2021/07/23 02:12:29;;;;;;;11.93;8.02;;;;;;;;;;5093466;28;20055;-58
2021/07/23 02:14:55;;;;;;;10.77;7.78;;;;;;;;;;5093525;28;20036;-59
2021/07/23 02:17:21;;;;;;;11.95;7.47;;;;;;;;;;5092248;28;20166;-58
2021/07/23 02:19:47;;;;;;;8.57;6.85;;;;;;;;;;5093634;28;20084;-58
2021/07/23 02:22:13;;;;;;;13.60;7.93;;;;;;;;;;5093971;28;20051;-58
2021/07/23 02:24:39;;;;;;;14.32;8.60;;;;;;;;;;5095722;28;20503;-58
2021/07/23 02:27:05;;;;;;;9.43;8.20;;;;;;;;;;5096935;28;20150;-59
2021/07/23 02:29:31;;;;;;;9.48;7.63;;;;;;;;;;5097493;28;20472;-58
2021/07/23 02:31:57;;;;;;;12.90;8.70;;;;;;;;;;5097526;28;20027;-59
2021/07/23 02:34:23;;;;;;;9.82;8.20;;;;;;;;;;5097138;28;20119;-59
2021/07/23 02:36:49;;;;;;;9.00;6.75;;;;;;;;;;5096903;28;20016;-58
2021/07/23 02:39:15;;;;;;;8.05;6.75;;;;;;;;;;5097108;28;20450;-58
2021/07/23 02:41:43;;;;;;;11.95;8.05;;;;;;;;;;5097764;28;20023;-58
2021/07/23 02:44:09;;;;;;;10.20;7.57;;;;;;;;;;5097658;28;20016;-59
2021/07/23 02:46:35;;;;;;;9.45;8.02;;;;;;;;;;5096935;28;20027;-58
2021/07/23 02:49:01;;;;;;;8.60;7.20;;;;;;;;;;5097228;28;20035;-59
2021/07/23 02:51:27;;;;;;;14.40;7.88;;;;;;;;;;5097232;28;20146;-59
2021/07/23 02:53:53;;;;;;;11.13;7.60;;;;;;;;;;5096923;28;20530;-59
2021/07/23 02:56:19;;;;;;;11.18;8.25;;;;;;;;;;5096846;28;20046;-59
2021/07/23 02:58:47;;;;;;;9.63;6.80;;;;;;;;;;5096109;28;20031;-59
2021/07/23 03:01:13;;;;;;;9.15;7.85;;;;;;;;;;5096737;28;20107;-59
2021/07/23 03:03:39;;;;;;;9.93;8.23;;;;;;;;;;5096586;28;20020;-58
2021/07/23 03:06:05;;;;;;;13.55;8.82;;;;;;;;;;5096625;28;20089;-58
2021/07/23 03:08:31;;;;;;;10.80;8.05;;;;;;;;;;5096543;28;20322;-58
2021/07/23 03:10:57;;;;;;;11.68;8.88;;;;;;;;;;5096144;28;20163;-59
2021/07/23 03:13:23;;;;;;;13.50;8.27;;;;;;;;;;5095393;28;20025;-59
2021/07/23 03:15:49;;;;;;;10.85;8.02;;;;;;;;;;5096292;28;20032;-59
2021/07/23 03:18:21;;;;;;;10.25;8.23;;;;;;;;;;5096262;28;20020;-59
2021/07/23 03:20:47;;;;;;;9.50;7.53;;;;;;;;;;5096693;28;20027;-58
2021/07/23 03:23:13;;;;;;;15.05;8.98;;;;;;;;;;5096278;28;20377;-58
2021/07/23 03:25:39;;;;;;;9.00;7.13;;;;;;;;;;5096745;28;20078;-59
2021/07/23 03:28:05;;;;;;;12.52;8.30;;;;;;;;;;5096523;28;20114;-58
2021/07/23 03:30:33;;;;;;;10.90;8.93;;;;;;;;;;5096125;28;20035;-58
2021/07/23 03:32:59;;;;;;;11.25;7.70;;;;;;;;;;5096845;28;20081;-58
2021/07/23 03:35:25;;;;;;;11.48;8.20;;;;;;;;;;5095311;28;20051;-58
2021/07/23 03:37:51;;;;;;;10.25;8.43;;;;;;;;;;5096016;28;20024;-58
2021/07/23 03:40:17;;;;;;;10.38;8.63;;;;;;;;;;5096489;28;20027;-58
2021/07/23 03:42:44;;;;;;;9.63;8.30;;;;;;;;;;5094902;28;20497;-58
2021/07/23 03:45:10;;;;;;;8.50;7.70;;;;;;;;;;5095809;28;20111;-58
2021/07/23 03:47:36;;;;;;;9.70;8.15;;;;;;;;;;5095868;28;20047;-59
2021/07/23 03:50:02;;;;;;;9.00;7.35;;;;;;;;;;5096195;28;20307;-59
2021/07/23 03:52:28;;;;;;;10.20;8.73;;;;;;;;;;5096083;28;20024;-58
2021/07/23 03:54:54;;;;;;;9.60;7.68;;;;;;;;;;5095578;28;20407;-58
2021/07/23 03:57:20;;;;;;;8.75;7.30;;;;;;;;;;5096017;28;20358;-58
2021/07/23 03:59:46;;;;;;;9.38;8.25;;;;;;;;;;5095457;28;20073;-58
2021/07/23 04:02:12;;;;;;;9.73;7.88;;;;;;;;;;5095672;28;20462;-58
2021/07/23 04:04:38;;;;;;;11.60;8.23;;;;;;;;;;5095096;28;20035;-58
2021/07/23 04:07:04;;;;;;;10.63;8.60;;;;;;;;;;5095409;28;20063;-58
2021/07/23 04:09:31;;;;;;;10.43;8.63;;;;;;;;;;5094407;28;20546;-58
2021/07/23 04:11:57;;;;;;;11.82;8.73;;;;;;;;;;5095135;28;20052;-58
2021/07/23 04:14:23;;;;;;;10.85;8.50;;;;;;;;;;5095242;28;20046;-58
2021/07/23 04:16:50;;;;;;;10.77;7.90;;;;;;;;;;5095333;28;20032;-58
2021/07/23 04:19:16;;;;;;;10.63;9.07;;;;;;;;;;5095655;28;20028;-58
2021/07/23 04:21:42;;;;;;;11.48;8.35;;;;;;;;;;5095786;28;20016;-58
2021/07/23 04:24:08;;;;;;;12.10;8.95;;;;;;;;;;5095315;28;20475;-58
2021/07/23 04:26:35;;;;;;;10.30;8.13;;;;;;;;;;5095024;28;20059;-59
2021/07/23 04:29:01;;;;;;;11.18;9.57;;;;;;;;;;5095372;28;20425;-59
2021/07/23 04:31:27;;;;;;;11.13;9.07;;;;;;;;;;5095109;28;20042;-58
2021/07/23 04:33:53;;;;;;;11.80;9.13;;;;;;;;;;5094874;28;20074;-58
2021/07/23 04:36:19;;;;;;;12.35;9.05;;;;;;;;;;5094904;28;20118;-58
2021/07/23 04:38:45;;;;;;;9.18;7.93;;;;;;;;;;5095361;28;20059;-58
2021/07/23 04:41:12;;;;;;;11.95;9.00;;;;;;;;;;5095291;28;20050;-58
2021/07/23 04:43:39;;;;;;;10.93;8.57;;;;;;;;;;5094007;28;20032;-58
2021/07/23 04:46:06;;;;;;;10.77;8.48;;;;;;;;;;5095074;28;20031;-58
2021/07/23 04:48:32;;;;;;;13.13;8.80;;;;;;;;;;5093750;28;20067;-58
2021/07/23 04:51:01;;;;;;;10.73;8.63;;;;;;;;;;5094552;28;20049;-58
2021/07/23 04:53:27;;;;;;;11.10;8.80;;;;;;;;;;5095037;28;20461;-58
2021/07/23 04:55:55;;;;;;;9.10;7.93;;;;;;;;;;5095224;28;20142;-58
2021/07/23 04:58:21;;;;;;;11.07;8.52;;;;;;;;;;5095387;28;20024;-58
2021/07/23 05:00:47;;;;;;;8.52;7.57;;;;;;;;;;5094818;28;20016;-58
2021/07/23 05:03:13;;;;;;;9.98;8.88;;;;;;;;;;5095353;28;20366;-58
2021/07/23 05:05:43;;;;;;;11.88;8.88;;;;;;;;;;5094740;28;20106;-59
2021/07/23 05:08:10;;;;;;;10.20;8.77;;;;;;;;;;5094704;28;20036;-58
2021/07/23 05:10:36;;;;;;;11.98;9.15;;;;;;;;;;5094273;28;20028;-59
2021/07/23 05:13:04;;;;;;;11.75;9.20;;;;;;;;;;5095252;28;20016;-59
2021/07/23 05:15:30;;;;;;;13.30;10.07;;;;;;;;;;5094780;28;20437;-59
2021/07/23 05:17:56;;;;;;;12.85;7.95;;;;;;;;;;5094483;28;20369;-58
2021/07/23 05:20:22;;;;;;;12.52;9.38;;;;;;;;;;5094979;28;20027;-59
2021/07/23 05:22:51;;;;;;;10.25;8.32;;;;;;;;;;5094706;28;20046;-58
2021/07/23 05:25:19;;;;;;;14.45;8.77;;;;;;;;;;5094263;28;20028;-58
2021/07/23 05:27:45;;;;;;;13.02;8.63;;;;;;;;;;5094213;28;20024;-58
2021/07/23 05:30:11;;;;;;;17.90;9.05;;;;;;;;;;5094400;28;20020;-58
2021/07/23 05:32:40;;;;;;;9.90;8.68;;;;;;;;;;5094965;28;20122;-58
2021/07/23 05:35:06;;;;;;;11.85;8.70;;;;;;;;;;5093374;28;20066;-58
2021/07/23 05:37:33;;;;;;;12.38;10.35;;;;;;;;;;5094034;28;20024;-58
2021/07/23 05:39:59;;;;;;;12.75;9.20;;;;;;;;;;5093889;28;20458;-58
2021/07/23 05:42:25;;;;;;;12.23;8.88;;;;;;;;;;5094333;28;20020;-59
2021/07/23 05:44:50;;;;;;;13.27;9.10;;;;;;;;;;5092796;28;20028;-58
2021/07/23 05:47:18;;;;;;;14.00;8.52;;;;;;;;;;5094003;28;20027;-58
2021/07/23 05:49:44;;;;;;;11.55;8.63;;;;;;;;;;5094646;28;20427;-59
2021/07/23 05:52:10;;;;;;;11.63;8.65;;;;;;;;;;5094012;28;20043;-59
2021/07/23 05:54:36;;;;;;;11.73;8.48;;;;;;;;;;5094085;28;20424;-59
2021/07/23 05:57:02;;;;;;;13.07;9.10;;;;;;;;;;5094076;28;20035;-59
2021/07/23 05:59:29;;;;;;;11.95;9.70;;;;;;;;;;5093514;28;20020;-59
2021/07/23 06:01:55;;;;;;;14.15;9.20;;;;;;;;;;5093074;28;20016;-59
2021/07/23 06:04:21;;;;;;;11.63;9.20;;;;;;;;;;5094178;28;20047;-59
2021/07/23 06:06:49;;;;;;;10.23;8.90;;;;;;;;;;5093683;28;20028;-59
2021/07/23 06:09:16;;;;;;;11.63;9.95;;;;;;;;;;5094133;28;20063;-59
2021/07/23 06:11:43;;;;;;;10.80;8.30;;;;;;;;;;5093718;28;20044;-59
2021/07/23 06:14:09;;;;;;;10.68;8.20;;;;;;;;;;5093973;28;20023;-59
2021/07/23 06:16:35;;;;;;;8.95;7.75;;;;;;;;;;5093550;28;20033;-59
2021/07/23 06:19:01;;;;;;;11.90;8.43;;;;;;;;;;5093324;28;20020;-58
2021/07/23 06:21:27;;;;;;;11.13;8.68;;;;;;;;;;5093977;28;20027;-59
2021/07/23 06:23:53;;;;;;;11.45;8.63;;;;;;;;;;5093508;28;20061;-59
2021/07/23 06:26:22;;;;;;;12.05;8.52;;;;;;;;;;5092343;28;20030;-59
2021/07/23 06:28:48;;;;;;;10.63;8.52;;;;;;;;;;5093967;28;20073;-59
2021/07/23 06:31:15;;;;;;;8.55;7.55;;;;;;;;;;5093519;28;20462;-59
2021/07/23 06:33:41;;;;;;;15.20;9.35;;;;;;;;;;5093577;28;20024;-59
2021/07/23 06:36:07;;;;;;;10.13;8.85;;;;;;;;;;5093847;28;20032;-59
2021/07/23 06:38:33;;;;;;;16.60;9.32;;;;;;;;;;5093651;28;20031;-58
2021/07/23 06:40:59;;;;;;;19.05;9.63;;;;;;;;;;5093581;28;20025;-59
2021/07/23 06:43:26;;;;;;;14.07;9.40;;;;;;;;;;5093519;28;20461;-58
2021/07/23 06:45:52;;;;;;;11.40;8.52;;;;;;;;;;5093600;28;20024;-59
2021/07/23 06:48:18;;;;;;;12.75;9.98;;;;;;;;;;5093987;28;20078;-59
2021/07/23 06:50:44;;;;;;;11.95;10.68;;;;;;;;;;5093705;28;20020;-59
2021/07/23 06:53:10;;;;;;;10.95;9.77;;;;;;;;;;5092194;28;20020;-59
2021/07/23 06:55:36;;;;;;;11.15;9.13;;;;;;;;;;5092988;28;20465;-59
2021/07/23 06:58:03;;;;;;;15.40;10.05;;;;;;;;;;5091768;28;20024;-59
2021/07/23 07:00:29;;;;;;;12.13;9.35;;;;;;;;;;5093491;28;20376;-59
2021/07/23 07:02:55;;;;;;;13.65;8.68;;;;;;;;;;5093001;28;20404;-59
2021/07/23 07:05:22;;;;;;;10.18;8.77;;;;;;;;;;5092712;28;20500;-59
2021/07/23 07:07:48;;;;;;;11.82;9.68;;;;;;;;;;5092902;28;20024;-59
2021/07/23 07:10:14;;;;;;;14.15;8.82;;;;;;;;;;5093148;28;20028;-59
2021/07/23 07:12:40;;;;;;;20.45;11.05;;;;;;;;;;5096008;28;20048;-58
2021/07/23 07:15:06;;;;;;;11.13;9.30;;;;;;;;;;5096524;28;20039;-59
2021/07/23 07:17:32;;;;;;;10.07;8.95;;;;;;;;;;5096691;28;20389;-59
2021/07/23 07:19:58;;;;;;;11.77;9.57;;;;;;;;;;5097066;28;20050;-59
2021/07/23 07:22:25;;;;;;;11.48;8.68;;;;;;;;;;5096767;28;20449;-59
2021/07/23 07:24:51;;;;;;;11.13;9.43;;;;;;;;;;5096851;28;20054;-59
2021/07/23 07:27:17;;;;;;;12.15;9.13;;;;;;;;;;5096102;28;20051;-59
2021/07/23 07:29:43;;;;;;;11.35;8.65;;;;;;;;;;5096367;28;20378;-59
2021/07/23 07:32:09;;;;;;;13.05;10.10;;;;;;;;;;5096585;28;20032;-59
2021/07/23 07:34:36;;;;;;;10.52;8.88;;;;;;;;;;5096117;28;20435;-59
2021/07/23 07:37:03;;;;;;;10.02;8.88;;;;;;;;;;5096584;28;20024;-59
2021/07/23 07:39:29;;;;;;;10.25;9.25;;;;;;;;;;5095968;28;20020;-59
2021/07/23 07:41:55;;;;;;;12.82;9.60;;;;;;;;;;5095755;28;20484;-59
2021/07/23 07:44:21;;;;;;;10.73;9.30;;;;;;;;;;5094729;28;20028;-59
2021/07/23 07:46:47;;;;;;;11.18;9.40;;;;;;;;;;5094941;28;20028;-59
2021/07/23 07:49:13;;;;;;;12.50;9.98;;;;;;;;;;5095883;28;20028;-59
2021/07/23 07:51:39;;;;;;;10.40;8.77;;;;;;;;;;5095914;28;20078;-59
2021/07/23 07:54:05;;;;;;;12.38;9.82;;;;;;;;;;5094606;28;20031;-59
2021/07/23 07:56:31;;;;;;;9.65;7.65;;;;;;;;;;5095448;28;20036;-59
2021/07/23 07:58:57;;;;;;;14.50;8.70;;;;;;;;;;5095662;28;20073;-59
2021/07/23 08:01:23;;;;;;;11.50;9.15;;;;;;;;;;5095566;28;20489;-59
2021/07/23 08:03:49;;;;;;;11.68;8.23;;;;;;;;;;5096007;28;20024;-59
2021/07/23 08:06:23;;;;;;;12.40;9.65;;;;;;;;;;5095749;28;20081;-59
2021/07/23 08:08:50;;;;;;;13.88;9.05;;;;;;;;;;5094801;28;20098;-59
2021/07/23 08:11:16;;;;;;;11.02;8.73;;;;;;;;;;5095584;28;20048;-59
2021/07/23 08:13:45;;;;;;;10.27;8.98;;;;;;;;;;5095346;28;20023;-59
2021/07/23 08:16:12;;;;;;;12.25;9.05;;;;;;;;;;5095176;28;20507;-59
2021/07/23 08:18:38;;;;;;;10.57;8.77;;;;;;;;;;5095157;28;20068;-59
2021/07/23 08:21:04;;;;;;;14.15;9.68;;;;;;;;;;5095815;28;20028;-59
2021/07/23 08:23:30;;;;;;;9.93;8.75;;;;;;;;;;5095087;28;20071;-59
2021/07/23 08:25:57;;;;;;;17.27;10.38;;;;;;;;;;5094811;28;20485;-58
2021/07/23 08:28:25;;;;;;;10.63;8.90;;;;;;;;;;5095085;28;20028;-59
2021/07/23 08:30:52;;;;;;;13.63;9.13;;;;;;;;;;5095081;28;20020;-59
2021/07/23 08:33:21;;;;;;;10.98;9.10;;;;;;;;;;5095173;28;20465;-59
2021/07/23 08:35:47;;;;;;;9.80;8.70;;;;;;;;;;5094833;28;20181;-59
2021/07/23 08:38:13;;;;;;;9.38;8.45;;;;;;;;;;5094122;28;20035;-59
2021/07/23 08:40:39;;;;;;;9.73;8.70;;;;;;;;;;5094891;28;20028;-60
2021/07/23 08:43:05;;;;;;;9.60;8.48;;;;;;;;;;5095619;28;20055;-59
2021/07/23 08:45:31;;;;;;;10.45;8.80;;;;;;;;;;5094636;28;20030;-59
2021/07/23 08:47:57;;;;;;;10.05;7.90;;;;;;;;;;5094890;28;20444;-59
2021/07/23 08:50:26;;;;;;;10.30;8.98;;;;;;;;;;5094515;28;20107;-59
2021/07/23 08:52:54;;;;;;;10.23;8.55;;;;;;;;;;5095055;28;20038;-59
2021/07/23 08:55:27;;;;;;;10.02;8.15;;;;;;;;;;5094883;28;20024;-59
2021/07/23 08:57:53;;;;;;;11.30;9.35;;;;;;;;;;5093667;28;20106;-59
2021/07/23 09:00:20;;;;;;;11.20;9.45;;;;;;;;;;5094357;28;20056;-59
2021/07/23 09:02:52;;;;;;;10.70;8.80;;;;;;;;;;5094944;28;20024;-59
2021/07/23 09:05:18;;;;;;;10.45;9.38;;;;;;;;;;5094240;28;20031;-59
2021/07/23 09:07:44;;;;;;;10.88;9.52;;;;;;;;;;5093393;28;20020;-59
2021/07/23 09:10:12;;;;;;;11.95;9.70;;;;;;;;;;5094186;28;20073;-59
2021/07/23 09:12:45;;;;;;;14.40;10.02;;;;;;;;;;5094334;28;20420;-59
2021/07/23 09:15:18;;;;;;;10.77;9.35;;;;;;;;;;5094072;28;20088;-59
2021/07/23 09:17:45;;;;;;;15.00;9.18;;;;;;;;;;5094157;28;20031;-59
2021/07/23 09:20:11;;;;;;;11.02;8.10;;;;;;;;;;5094135;28;20039;-59
2021/07/23 09:22:54;;;;;;;9.40;8.48;;;;;;;;;;5093295;28;20067;-59
2021/07/23 09:25:32;;;;;;;11.68;8.27;;;;;;;;;;5094390;28;20139;-59
2021/07/23 09:27:58;;;;;;;12.38;8.88;;;;;;;;;;5094481;28;20074;-59
2021/07/23 09:30:41;;;;;;;9.93;8.93;;;;;;;;;;5094031;28;20020;-59
2021/07/23 09:33:07;;;;;;;8.98;7.93;;;;;;;;;;5094273;28;20031;-59
2021/07/23 09:35:36;;;;;;;12.98;9.57;;;;;;;;;;5093568;28;20028;-59
2021/07/23 09:38:02;;;;;;;16.60;8.85;;;;;;;;;;5094181;28;20032;-59
2021/07/23 09:40:41;;;;;;;11.52;8.88;;;;;;;;;;5094302;28;20020;-59
2021/07/23 09:43:07;;;;;;;13.18;9.20;;;;;;;;;;5094174;28;20043;-59
2021/07/23 09:45:34;;;;;;;9.52;8.65;;;;;;;;;;5094213;28;20339;-59
2021/07/23 09:48:13;;;;;;;9.73;7.88;;;;;;;;;;5093781;28;20020;-59
2021/07/23 09:50:40;;;;;;;11.10;8.27;;;;;;;;;;5093640;28;20042;-59
2021/07/23 09:53:14;;;;;;;10.13;7.65;;;;;;;;;;5094211;28;20453;-60
2021/07/23 09:55:41;;;;;;;9.70;8.65;;;;;;;;;;5093464;28;20172;-60
2021/07/23 09:58:09;;;;;;;10.13;8.90;;;;;;;;;;5093852;28;20107;-60
2021/07/23 10:00:39;;;;;;;13.18;10.40;;;;;;;;;;5093581;28;20023;-60
2021/07/23 10:03:14;;;;;;;9.95;7.93;;;;;;;;;;5093683;28;20023;-60
2021/07/23 10:05:43;;;;;;;7.97;7.18;;;;;;;;;;5093731;28;20412;-60
2021/07/23 10:08:13;;;;;;;8.52;6.55;;;;;;;;;;5093700;28;20362;-60
2021/07/23 10:10:43;;;;;;;11.25;8.63;;;;;;;;;;5093207;28;20048;-60
2021/07/23 10:13:09;;;;;;;8.52;6.88;;;;;;;;;;5093835;28;20024;-60
2021/07/23 10:15:37;;;;;;;10.65;7.95;;;;;;;;;;5093829;28;20032;-60
2021/07/23 10:18:04;;;;;;;11.07;8.10;;;;;;;;;;5093400;28;20027;-60
2021/07/23 10:20:30;;;;;;;9.32;7.72;;;;;;;;;;5093441;28;20020;-60
2021/07/23 10:22:56;;;;;;;11.80;9.48;;;;;;;;;;5093725;28;20052;-60
2021/07/23 10:25:24;;;;;;;10.95;8.80;;;;;;;;;;5093505;28;20078;-60
2021/07/23 10:27:50;;;;;;;9.52;7.63;;;;;;;;;;5093258;28;20432;-60
2021/07/23 10:30:29;;;;;;;9.80;8.43;;;;;;;;;;5094002;28;20036;-60
2021/07/23 10:32:55;;;;;;;9.23;8.32;;;;;;;;;;5093809;28;20023;-60
2021/07/23 10:35:24;;;;;;;9.93;8.00;;;;;;;;;;5093286;28;20032;-60
2021/07/23 10:37:51;;;;;;;10.00;7.20;;;;;;;;;;5093291;28;20035;-59
2021/07/23 10:40:18;;;;;;;8.40;7.45;;;;;;;;;;5093142;28;20084;-59
2021/07/23 10:42:45;;;;;;;10.02;7.72;;;;;;;;;;5093725;28;20095;-60
2021/07/23 10:45:14;;;;;;;8.80;7.90;;;;;;;;;;5092835;28;20039;-60
2021/07/23 10:47:44;;;;;;;7.38;6.65;;;;;;;;;;5096417;28;20461;-60
2021/07/23 10:50:14;;;;;;;7.75;6.75;;;;;;;;;;5096973;28;20469;-60
2021/07/23 10:52:41;;;;;;;8.55;7.03;;;;;;;;;;5096640;28;20092;-60
2021/07/23 10:55:16;;;;;;;9.45;8.27;;;;;;;;;;5096813;28;20050;-60
2021/07/23 10:57:42;;;;;;;8.60;7.13;;;;;;;;;;5096070;28;20020;-60
2021/07/23 11:00:08;;;;;;;9.15;7.43;;;;;;;;;;5096796;28;20374;-60
2021/07/23 11:02:34;;;;;;;7.72;6.97;;;;;;;;;;5096407;28;20032;-60
2021/07/23 11:05:07;;;;;;;11.20;6.70;;;;;;;;;;5096483;28;20492;-60
2021/07/23 11:07:34;;;;;;;8.38;7.18;;;;;;;;;;5096682;28;20059;-60
2021/07/23 11:10:00;;;;;;;9.43;7.25;;;;;;;;;;5096949;28;20032;-60
2021/07/23 11:12:28;;;;;;;8.52;6.05;;;;;;;;;;5096196;28;20214;-60
2021/07/23 11:14:55;;;;;;;8.27;7.18;;;;;;;;;;5096641;28;20024;-60
2021/07/23 11:17:21;;;;;;;10.68;7.05;;;;;;;;;;5096694;28;20027;-60
2021/07/23 11:19:48;;;;;;;12.07;7.63;;;;;;;;;;5096453;28;20032;-60
2021/07/23 11:22:25;;;;;;;10.60;7.65;;;;;;;;;;5096562;28;20047;-60
2021/07/23 11:24:55;;;;;;;10.05;7.13;;;;;;;;;;5096107;28;20035;-60
2021/07/23 11:27:28;;;;;;;9.00;7.45;;;;;;;;;;5096827;28;20369;-60
2021/07/23 11:29:54;;;;;;;6.82;6.13;;;;;;;;;;5096690;28;20099;-60
2021/07/23 11:32:21;;;;;;;9.05;7.53;;;;;;;;;;5096206;28;20028;-60
2021/07/23 11:34:47;;;;;;;7.20;6.30;;;;;;;;;;5096644;28;20024;-60
2021/07/23 11:37:15;;;;;;;10.35;7.50;;;;;;;;;;5096616;28;20048;-60
2021/07/23 11:39:53;;;;;;;9.35;6.72;;;;;;;;;;5096017;28;20031;-60
2021/07/23 11:42:19;;;;;;;8.43;7.25;;;;;;;;;;5096450;28;20033;-60
2021/07/23 11:44:52;;;;;;;8.68;6.72;;;;;;;;;;5095582;28;20025;-60
2021/07/23 11:47:26;;;;;;;7.93;7.13;;;;;;;;;;5095445;28;20020;-60
2021/07/23 11:49:52;;;;;;;7.07;6.38;;;;;;;;;;5095800;28;20361;-60
2021/07/23 11:52:21;;;;;;;9.70;6.63;;;;;;;;;;5096005;28;20099;-60
2021/07/23 11:54:48;;;;;;;8.60;6.97;;;;;;;;;;5095595;28;20095;-60
2021/07/23 11:57:14;;;;;;;7.38;6.60;;;;;;;;;;5095479;28;20028;-60
2021/07/23 11:59:40;;;;;;;7.45;6.68;;;;;;;;;;5094309;28;20078;-60
2021/07/23 12:02:08;;;;;;;10.07;7.03;;;;;;;;;;5095683;28;20043;-60
2021/07/23 12:04:34;;;;;;;9.63;6.55;;;;;;;;;;5095347;28;20020;-60
2021/07/23 12:07:00;;;;;;;7.25;6.55;;;;;;;;;;5095553;28;20016;-60
2021/07/23 12:09:26;;;;;;;8.30;6.35;;;;;;;;;;5095586;28;20028;-60
2021/07/23 12:11:52;;;;;;;8.60;6.97;;;;;;;;;;5093980;28;20067;-60
2021/07/23 12:14:18;;;;;;;5.90;4.75;;;;;;;;;;5095284;28;20491;-60
2021/07/23 12:16:45;;;;;;;8.25;6.80;;;;;;;;;;5095262;28;20039;-60
2021/07/23 12:19:16;;;;;;;8.80;6.25;;;;;;;;;;5095213;28;20073;-60
2021/07/23 12:21:43;;;;;;;10.25;7.05;;;;;;;;;;5095357;28;20020;-60
2021/07/23 12:24:10;;;;;;;7.53;6.80;;;;;;;;;;5095103;28;20020;-60
2021/07/23 12:26:39;;;;;;;10.32;6.50;;;;;;;;;;5095257;28;20024;-60
2021/07/23 12:29:06;;;;;;;7.17;5.93;;;;;;;;;;5095246;28;20538;-60
2021/07/23 12:31:33;;;;;;;7.68;5.60;;;;;;;;;;5095388;28;20239;-60
2021/07/23 12:34:05;;;;;;;10.05;7.68;;;;;;;;;;5095361;28;20442;-60
2021/07/23 12:36:41;;;;;;;10.23;6.97;;;;;;;;;;5094768;28;20468;-60
2021/07/23 12:39:06;;;;;;;10.23;6.80;;;;;;;;;;5095274;28;20111;-60
2021/07/23 12:41:33;;;;;;;7.35;6.60;;;;;;;;;;5094679;28;20048;-59
2021/07/23 12:44:06;;;;;;;6.85;6.03;;;;;;;;;;5094694;28;20024;-60
2021/07/23 12:46:32;;;;;;;7.68;6.03;;;;;;;;;;5094852;28;20087;-60
2021/07/23 12:49:11;;;;;;;8.15;6.88;;;;;;;;;;5094746;28;20020;-60
2021/07/23 12:51:37;;;;;;;7.60;5.95;;;;;;;;;;5094962;28;20103;-59
2021/07/23 12:54:03;;;;;;;7.53;6.57;;;;;;;;;;5095195;28;20016;-60
2021/07/23 12:56:30;;;;;;;12.45;6.60;;;;;;;;;;5094981;28;20039;-60
2021/07/23 12:58:56;;;;;;;7.43;6.18;;;;;;;;;;5094583;28;20064;-60
2021/07/23 13:01:22;;;;;;;8.48;6.53;;;;;;;;;;5094951;28;20370;-60
2021/07/23 13:03:48;;;;;;;7.40;5.65;;;;;;;;;;5094423;28;20394;-60
2021/07/23 13:06:19;;;;;;;6.95;6.13;;;;;;;;;;5094577;28;20504;-60
2021/07/23 13:08:45;;;;;;;7.97;7.25;;;;;;;;;;5093450;28;20381;-60
2021/07/23 13:11:12;;;;;;;7.65;5.57;;;;;;;;;;5093857;28;20036;-60
2021/07/23 13:13:40;;;;;;;8.10;6.38;;;;;;;;;;5094455;28;20034;-60
2021/07/23 13:16:10;;;;;;;7.75;6.95;;;;;;;;;;5094724;28;20032;-59
2021/07/23 13:18:37;;;;;;;8.40;6.75;;;;;;;;;;5094184;28;20107;-60
2021/07/23 13:21:03;;;;;;;9.88;7.45;;;;;;;;;;5094218;28;20024;-60
2021/07/23 13:23:34;;;;;;;7.38;6.60;;;;;;;;;;5094447;28;20574;-60
2021/07/23 13:26:03;;;;;;;9.20;7.05;;;;;;;;;;5094675;28;20027;-60
2021/07/23 13:28:30;;;;;;;7.83;6.93;;;;;;;;;;5093998;28;20039;-60
2021/07/23 13:30:56;;;;;;;8.50;6.50;;;;;;;;;;5094108;28;20530;-60
2021/07/23 13:33:23;;;;;;;8.68;7.13;;;;;;;;;;5093993;28;20050;-60
2021/07/23 13:35:51;;;;;;;7.82;6.72;;;;;;;;;;5094051;28;20433;-60
2021/07/23 13:38:21;;;;;;;7.28;6.15;;;;;;;;;;5094117;28;20016;-60
2021/07/23 13:40:49;;;;;;;10.48;7.07;;;;;;;;;;5093925;28;20107;-60
2021/07/23 13:43:16;;;;;;;6.82;5.78;;;;;;;;;;5094245;28;20042;-60
2021/07/23 13:45:42;;;;;;;8.85;6.13;;;;;;;;;;5093615;28;20027;-60
2021/07/23 13:48:09;;;;;;;8.98;6.45;;;;;;;;;;5093404;28;20384;-60
2021/07/23 13:50:35;;;;;;;6.60;5.75;;;;;;;;;;5093713;28;20092;-60
2021/07/23 13:53:01;;;;;;;7.78;6.10;;;;;;;;;;5093711;28;20035;-60
2021/07/23 13:55:27;;;;;;;7.00;6.07;;;;;;;;;;5093593;28;20027;-60
2021/07/23 13:57:53;;;;;;;8.88;6.55;;;;;;;;;;5093707;28;20024;-60
2021/07/23 14:00:19;;;;;;;7.50;6.15;;;;;;;;;;5093550;28;20454;-60
2021/07/23 14:02:46;;;;;;;7.53;6.07;;;;;;;;;;5094094;28;20035;-60
2021/07/23 14:05:12;;;;;;;8.95;6.15;;;;;;;;;;5093655;28;20016;-60
2021/07/23 14:07:38;;;;;;;9.75;7.05;;;;;;;;;;5093811;28;20027;-60
2021/07/23 14:10:05;;;;;;;6.38;5.40;;;;;;;;;;5093888;28;20038;-60
2021/07/23 14:12:31;;;;;;;8.48;5.90;;;;;;;;;;5093844;28;20044;-60
2021/07/23 14:14:57;;;;;;;7.53;6.00;;;;;;;;;;5093339;28;20032;-60
2021/07/23 14:17:23;;;;;;;6.95;6.03;;;;;;;;;;5093380;28;20031;-60
2021/07/23 14:19:49;;;;;;;8.20;6.25;;;;;;;;;;5094196;28;20025;-60
2021/07/23 14:22:15;;;;;;;9.77;6.43;;;;;;;;;;5097661;28;20031;-60
2021/07/23 14:24:41;;;;;;;8.70;6.50;;;;;;;;;;5097854;28;20027;-60
2021/07/23 14:27:07;;;;;;;6.13;5.53;;;;;;;;;;5098012;28;20046;-60
2021/07/23 14:29:34;;;;;;;7.32;6.15;;;;;;;;;;5098284;28;20020;-60
2021/07/23 14:32:00;;;;;;;8.15;5.70;;;;;;;;;;5098329;28;20020;-60
2021/07/23 14:34:26;;;;;;;7.95;6.60;;;;;;;;;;5098237;28;20028;-60